Terminal Aerodrome Forecast
Issued by NWS

Home | Current Version | Previous Version | Text Only | Print | Product List | Glossary On
Versions: 1 2 3 4 5 6 7 8 9 10 11 12 13 14 15
933
FTUS41 KLWX 231344 AAB
TAFMTN
TAF AMD
KMTN 231344Z 2314/2412 00000KT 2SM BR OVC003
     FM231600 15007KT P6SM BKN035
     FM231900 15010G17KT P6SM BKN035
     FM240000 14012G23KT P6SM -SHRA OVC025
     FM240300 14013G26KT 5SM SHRA OVC025 WS020/16040KT
     FM240600 15013G29KT 5SM SHRA OVC015
     FM241000 16014G30KT P6SM SHRA OVC025=

USA.gov is the U.S. government's official web portal to all federal, state and local government web resources and services.